Time;durP1;ratioP1;P1;durP2;ratioP2;P2;SDS_P1;SDS_P2;PMS_P1;PMS_P2;Temp;Humidity;BMP_temperature;BMP_pressure;BME280_temperature;BME280_humidity;BME280_pressure;Samples;Min_cycle;Max_cycle;Signal;HPM_P1;HPM_P2
2021/01/06 00:00:28;;;;;;;59.53;21.67;;;7.60;61.90;;;;;;5056447;28;20024;-76
2021/01/06 00:02:53;;;;;;;77.07;26.95;;;7.60;61.90;;;;;;5056534;28;20021;-76
2021/01/06 00:05:23;;;;;;;89.53;26.25;;;7.60;62.00;;;;;;5056482;28;20032;-76
2021/01/06 00:07:48;;;;;;;77.18;25.63;;;7.60;62.10;;;;;;5060138;28;20024;-77
2021/01/06 00:10:22;;;;;;;88.40;29.92;;;7.60;62.00;;;;;;5076107;28;20032;-77
2021/01/06 00:12:48;;;;;;;78.55;25.95;;;7.60;62.00;;;;;;5076192;28;20028;-77
2021/01/06 00:15:16;;;;;;;78.50;25.67;;;7.60;62.00;;;;;;5074870;28;20025;-77
2021/01/06 00:17:42;;;;;;;74.00;24.05;;;7.60;62.00;;;;;;5075989;28;20021;-77
2021/01/06 00:20:10;;;;;;;60.75;21.20;;;7.60;62.00;;;;;;5068754;28;20535;-77
2021/01/06 00:22:36;;;;;;;69.97;22.60;;;7.60;62.00;;;;;;5055763;28;20061;-77
2021/01/06 00:25:03;;;;;;;67.00;22.35;;;7.60;62.00;;;;;;5056343;28;20044;-77
2021/01/06 00:27:29;;;;;;;57.40;20.90;;;7.60;62.00;;;;;;5055946;28;20035;-77
2021/01/06 00:29:54;;;;;;;60.58;20.17;;;7.60;62.00;;;;;;5055798;28;20373;-77
2021/01/06 00:32:20;;;;;;;70.80;22.33;;;7.60;62.00;;;;;;5055874;28;20032;-77
2021/01/06 00:34:46;;;;;;;79.38;25.33;;;7.60;62.10;;;;;;5055816;28;20025;-77
2021/01/06 00:37:15;;;;;;;177.77;69.80;;;7.60;62.00;;;;;;5055854;28;20060;-77
2021/01/06 00:39:41;;;;;;;134.25;55.90;;;7.60;61.90;;;;;;5054529;28;20031;-77
2021/01/06 00:42:07;;;;;;;97.95;37.13;;;7.60;61.80;;;;;;5055958;28;20501;-77
2021/01/06 00:44:33;;;;;;;78.30;31.60;;;7.50;61.70;;;;;;5055853;28;20025;-77
2021/01/06 00:46:59;;;;;;;79.80;30.15;;;7.50;61.70;;;;;;5054217;28;20420;-77
2021/01/06 00:49:24;;;;;;;70.50;28.80;;;7.50;61.80;;;;;;5055803;28;20352;-77
2021/01/06 00:51:50;;;;;;;65.53;26.15;;;7.50;61.80;;;;;;5055549;28;20500;-77
2021/01/06 00:54:17;;;;;;;49.63;20.25;;;7.50;61.80;;;;;;5071687;28;20099;-77
2021/01/06 00:56:43;;;;;;;47.45;19.25;;;7.60;61.80;;;;;;5074422;28;20094;-77
2021/01/06 00:59:08;;;;;;;55.30;19.17;;;7.50;61.70;;;;;;5075436;28;20474;-77
2021/01/06 01:01:34;;;;;;;45.10;18.60;;;7.50;61.50;;;;;;5075745;28;20028;-77
2021/01/06 01:04:02;;;;;;;46.03;18.63;;;7.50;61.40;;;;;;5074214;28;20027;-77
2021/01/06 01:06:31;;;;;;;49.17;19.17;;;7.50;61.30;;;;;;5074098;28;20016;-77
2021/01/06 01:08:57;;;;;;;42.75;17.75;;;7.60;61.40;;;;;;5069959;28;20009;-77
2021/01/06 01:11:24;;;;;;;48.10;18.60;;;7.50;61.30;;;;;;5070711;28;20528;-77
2021/01/06 01:13:55;;;;;;;49.75;18.75;;;7.50;61.30;;;;;;5055554;28;20033;-77
2021/01/06 01:16:22;;;;;;;48.58;19.40;;;7.50;61.30;;;;;;5055206;28;20017;-77
2021/01/06 01:18:48;;;;;;;44.15;19.33;;;7.50;61.30;;;;;;5055502;28;20029;-77
2021/01/06 01:21:17;;;;;;;51.67;21.77;;;7.50;61.30;;;;;;5055197;28;20060;-77
2021/01/06 01:23:45;;;;;;;71.90;28.50;;;7.50;61.20;;;;;;5054973;28;20123;-77
2021/01/06 01:26:11;;;;;;;79.72;32.88;;;7.50;61.20;;;;;;5070403;28;20512;-76
2021/01/06 01:28:39;;;;;;;59.05;23.45;;;7.50;61.20;;;;;;5070365;28;20028;-77
2021/01/06 01:31:05;;;;;;;51.97;20.17;;;7.50;62.00;;;;;;5054556;28;20394;-77
2021/01/06 01:33:30;;;;;;;50.92;21.48;;;7.50;61.20;;;;;;5054955;28;20020;-77
2021/01/06 01:35:57;;;;;;;54.17;20.92;;;7.40;61.10;;;;;;5055184;28;20021;-78
2021/01/06 01:38:26;;;;;;;51.20;20.48;;;7.40;61.00;;;;;;5055059;28;20021;-77
2021/01/06 01:41:08;;;;;;;44.00;19.00;;;7.40;61.00;;;;;;5053352;28;20032;-78
2021/01/06 01:43:35;;;;;;;42.65;19.02;;;7.40;61.00;;;;;;5054815;28;20036;-77
2021/01/06 01:46:01;;;;;;;45.85;20.23;;;7.40;61.10;;;;;;5053221;28;20029;-77
2021/01/06 01:48:32;;;;;;;66.03;27.17;;;7.40;61.10;;;;;;5054361;28;20021;-77
2021/01/06 01:51:04;;;;;;;49.90;23.05;;;7.40;61.00;;;;;;5054357;28;20355;-77
2021/01/06 01:53:37;;;;;;;45.95;21.85;;;7.40;60.90;;;;;;5054319;28;20017;-77
2021/01/06 01:56:04;;;;;;;43.38;20.48;;;7.30;60.90;;;;;;5054344;28;20021;-77
2021/01/06 01:58:33;;;;;;;40.97;18.52;;;7.30;61.00;;;;;;5069652;28;20036;-77
2021/01/06 02:01:00;;;;;;;37.75;17.40;;;7.30;61.00;;;;;;5054163;28;20033;-78
2021/01/06 02:03:36;;;;;;;45.63;18.92;;;7.30;61.00;;;;;;5069703;28;20035;-78
2021/01/06 02:06:11;;;;;;;40.35;19.83;;;7.30;61.10;;;;;;5054128;28;20032;-78
2021/01/06 02:09:13;;;;;;;36.50;16.88;;;7.30;61.10;;;;;;5054414;28;20025;-77
2021/01/06 02:11:47;;;;;;;44.00;19.65;;;7.30;61.20;;;;;;5054021;28;20036;-77
2021/01/06 02:14:26;;;;;;;38.05;18.15;;;7.30;61.20;;;;;;5054072;28;20029;-77
2021/01/06 02:17:04;;;;;;;37.85;16.25;;;7.30;61.10;;;;;;5053942;28;20486;-77
2021/01/06 02:19:42;;;;;;;38.85;16.80;;;7.30;61.10;;;;;;5053903;28;20021;-77
2021/01/06 02:22:12;;;;;;;34.10;15.68;;;7.30;61.20;;;;;;5053787;28;20017;-78
2021/01/06 02:24:38;;;;;;;37.22;17.48;;;7.30;61.20;;;;;;5059713;28;20494;-77
2021/01/06 02:27:07;;;;;;;31.88;15.48;;;7.30;61.20;;;;;;5053752;28;20474;-77
2021/01/06 02:29:35;;;;;;;34.20;16.85;;;7.30;61.20;;;;;;5052384;28;20028;-77
2021/01/06 02:32:03;;;;;;;32.67;16.13;;;7.30;61.20;;;;;;5053758;28;20393;-78
2021/01/06 02:34:30;;;;;;;32.95;16.23;;;7.30;61.20;;;;;;5052435;28;20017;-77
2021/01/06 02:36:57;;;;;;;33.60;16.25;;;7.30;61.20;;;;;;5052302;28;20017;-78
2021/01/06 02:39:25;;;;;;;33.80;15.05;;;7.30;61.20;;;;;;5053786;28;20025;-78
2021/01/06 02:41:51;;;;;;;35.67;16.40;;;7.30;61.30;;;;;;5053835;28;20025;-77
2021/01/06 02:44:17;;;;;;;29.48;14.15;;;7.30;61.20;;;;;;5053943;28;20028;-77
2021/01/06 02:46:44;;;;;;;26.20;13.55;;;7.30;61.20;;;;;;5053546;28;20091;-78
2021/01/06 02:49:11;;;;;;;20.48;11.98;;;7.30;61.20;;;;;;5053561;28;20021;-78
2021/01/06 02:51:42;;;;;;;17.75;10.27;;;7.30;61.20;;;;;;5053503;28;20024;-78
2021/01/06 02:54:11;;;;;;;15.93;9.15;;;7.30;61.20;;;;;;5053837;28;20021;-78
2021/01/06 02:56:40;;;;;;;16.40;9.43;;;7.30;61.10;;;;;;5053419;28;20090;-78
2021/01/06 02:59:08;;;;;;;19.40;10.68;;;7.30;61.00;;;;;;5053791;28;20075;-78
2021/01/06 03:01:38;;;;;;;18.00;10.85;;;7.30;61.00;;;;;;5053602;28;20025;-77
2021/01/06 03:04:07;;;;;;;15.32;9.02;;;7.30;60.90;;;;;;5053485;28;20029;-78
2021/01/06 03:06:40;;;;;;;10.85;7.50;;;7.30;61.00;;;;;;5053427;28;20053;-77
2021/01/06 03:09:20;;;;;;;12.40;7.32;;;7.30;61.00;;;;;;5054086;28;20497;-77
2021/01/06 03:11:46;;;;;;;11.85;6.85;;;7.30;61.00;;;;;;5053805;28;20029;-77
2021/01/06 03:14:12;;;;;;;12.13;7.35;;;7.30;61.00;;;;;;5053630;28;20112;-78
2021/01/06 03:16:38;;;;;;;12.07;7.18;;;7.30;61.10;;;;;;5053372;28;20025;-77
2021/01/06 03:19:05;;;;;;;11.23;7.55;;;7.30;61.10;;;;;;5065366;28;20024;-77
2021/01/06 03:21:30;;;;;;;15.43;7.25;;;7.30;61.10;;;;;;5075011;28;20021;-77
2021/01/06 03:23:58;;;;;;;12.48;7.13;;;7.30;61.20;;;;;;5077151;28;20400;-78
2021/01/06 03:26:25;;;;;;;12.13;7.03;;;7.30;61.20;;;;;;5077203;28;20022;-77
2021/01/06 03:28:52;;;;;;;12.52;7.07;;;7.30;61.10;;;;;;5077148;28;20472;-77
2021/01/06 03:31:34;;;;;;;10.18;6.70;;;7.30;61.10;;;;;;5077268;28;20111;-77
2021/01/06 03:34:06;;;;;;;12.63;7.90;;;7.30;61.10;;;;;;5077097;28;20021;-77
2021/01/06 03:36:38;;;;;;;10.73;6.80;;;7.30;61.10;;;;;;5077167;28;20031;-77
2021/01/06 03:39:10;;;;;;;13.23;8.23;;;7.30;61.10;;;;;;5075733;28;20059;-75
2021/01/06 03:41:36;;;;;;;12.40;7.45;;;7.30;61.10;;;;;;5077118;28;20016;-77
2021/01/06 03:44:07;;;;;;;11.82;7.20;;;7.30;61.10;;;;;;5069641;28;20039;-77
2021/01/06 03:46:57;;;;;;;11.90;7.18;;;7.30;61.10;;;;;;5056859;28;20043;-75
2021/01/06 03:49:31;;;;;;;10.88;6.88;;;7.30;61.10;;;;;;5056498;28;20025;-77
2021/01/06 03:52:02;;;;;;;;;;;7.30;61.10;;;;;;5055802;28;20074;-77
2021/01/06 03:54:43;;;;;;;13.10;7.85;;;7.30;61.10;;;;;;5055413;28;19909;-78
2021/01/06 03:57:11;;;;;;;12.05;7.35;;;7.30;60.90;;;;;;5056852;28;20024;-77
2021/01/06 03:59:40;;;;;;;12.73;7.82;;;7.30;61.00;;;;;;5055268;28;20025;-77
2021/01/06 04:02:26;;;;;;;13.10;7.95;;;7.30;61.00;;;;;;5056494;28;20017;-78
2021/01/06 04:05:07;;;;;;;11.55;7.00;;;7.30;61.00;;;;;;5056869;28;20050;-77
2021/01/06 04:07:52;;;;;;;10.07;6.32;;;7.30;61.80;;;;;;5056969;28;20416;-77
2021/01/06 04:10:29;;;;;;;10.00;6.47;;;7.20;61.00;;;;;;5055226;28;20083;-77
2021/01/06 04:12:55;;;;;;;12.95;7.53;;;7.30;61.10;;;;;;5056548;28;20025;-76
2021/01/06 04:15:21;;;;;;;8.20;5.75;;;7.20;61.10;;;;;;5054634;28;20397;-76
2021/01/06 04:17:50;;;;;;;7.78;5.63;;;7.20;61.20;;;;;;5056101;28;20056;-76
2021/01/06 04:20:32;;;;;;;10.05;6.65;;;7.20;61.20;;;;;;5055906;28;20478;-76
2021/01/06 04:23:01;;;;;;;11.63;7.55;;;7.20;61.30;;;;;;5055988;28;20053;-77
2021/01/06 04:25:26;;;;;;;11.95;7.20;;;7.20;61.20;;;;;;5056459;28;20032;-77
2021/01/06 04:27:58;;;;;;;12.15;6.60;;;7.20;61.10;;;;;;5056006;28;20021;-77
2021/01/06 04:30:35;;;;;;;9.38;5.90;;;7.20;61.10;;;;;;5055939;28;20103;-76
2021/01/06 04:33:11;;;;;;;8.57;5.45;;;7.20;61.30;;;;;;5054877;28;20029;-77
2021/01/06 04:35:37;;;;;;;12.10;7.78;;;7.20;61.30;;;;;;5055092;28;20409;-76
2021/01/06 04:38:04;;;;;;;11.65;7.57;;;7.20;61.20;;;;;;5055896;28;20029;-76
2021/01/06 04:40:40;;;;;;;9.77;6.15;;;7.20;61.10;;;;;;5055732;28;20029;-76
2021/01/06 04:43:24;;;;;;;10.80;6.72;;;7.20;61.20;;;;;;5054425;28;20055;-76
2021/01/06 04:46:16;;;;;;;13.38;8.68;;;7.10;61.20;;;;;;5055809;28;20028;-77
2021/01/06 04:49:05;;;;;;;41.97;19.30;;;7.20;61.30;;;;;;5055710;28;20545;-76
2021/01/06 04:51:58;;;;;;;36.97;16.10;;;7.10;61.20;;;;;;5055489;28;20035;-76
2021/01/06 04:54:49;;;;;;;20.85;10.13;;;7.10;61.30;;;;;;5055759;28;20025;-77
2021/01/06 04:57:21;;;;;;;30.88;13.55;;;7.10;61.30;;;;;;5055739;28;20025;-77
2021/01/06 04:59:52;;;;;;;24.20;12.05;;;7.10;61.40;;;;;;5055268;28;20021;-76
2021/01/06 05:02:56;;;;;;;16.17;8.52;;;7.10;61.50;;;;;;5055184;28;20025;-77
2021/01/06 05:05:27;;;;;;;13.50;7.85;;;7.10;61.60;;;;;;5055463;28;20037;-77
2021/01/06 05:07:59;;;;;;;15.52;10.13;;;7.10;61.60;;;;;;5055189;28;20100;-77
2021/01/06 05:10:31;;;;;;;10.40;7.10;;;7.10;61.50;;;;;;5070391;28;20099;-77
2021/01/06 05:13:14;;;;;;;11.48;7.50;;;7.10;61.60;;;;;;5055198;28;20025;-77
2021/01/06 05:15:50;;;;;;;9.18;6.28;;;7.10;61.60;;;;;;5055391;28;20017;-77
2021/01/06 05:18:16;;;;;;;9.23;6.30;;;7.00;61.60;;;;;;5055070;28;20017;-77
2021/01/06 05:20:42;;;;;;;11.10;6.50;;;7.00;61.60;;;;;;5053782;28;20532;-76
2021/01/06 05:23:21;;;;;;;9.57;5.78;;;7.00;61.80;;;;;;5054824;28;20049;-76
2021/01/06 05:25:48;;;;;;;10.05;5.45;;;7.00;61.90;;;;;;5054814;28;20052;-76
2021/01/06 05:28:19;;;;;;;11.30;6.05;;;7.10;62.00;;;;;;5054766;28;20025;-77
2021/01/06 05:30:51;;;;;;;9.88;6.18;;;7.10;62.00;;;;;;5054598;28;20064;-76
2021/01/06 05:33:24;;;;;;;20.33;10.38;;;7.10;61.90;;;;;;5055034;28;20566;-76
2021/01/06 05:35:50;;;;;;;27.30;13.45;;;7.10;61.90;;;;;;5054518;28;20025;-77
2021/01/06 05:38:16;;;;;;;21.20;11.32;;;7.10;61.80;;;;;;5054862;28;20094;-76
2021/01/06 05:40:43;;;;;;;17.52;8.52;;;7.10;61.80;;;;;;5053288;28;20083;-76
2021/01/06 05:43:22;;;;;;;12.73;8.13;;;7.10;61.90;;;;;;5054329;28;20029;-76
2021/01/06 05:45:58;;;;;;;33.13;15.52;;;7.10;61.80;;;;;;5054563;28;20029;-76
2021/01/06 05:48:49;;;;;;;63.40;25.15;;;7.10;61.80;;;;;;5054572;28;20029;-76
2021/01/06 05:51:21;;;;;;;31.00;14.85;;;7.10;61.80;;;;;;5054344;28;20112;-77
2021/01/06 05:54:18;;;;;;;25.23;11.82;;;7.10;61.80;;;;;;5054342;28;20056;-76
2021/01/06 05:57:07;;;;;;;9.30;6.32;;;7.00;61.70;;;;;;5054591;28;20021;-76
2021/01/06 05:59:48;;;;;;;11.20;7.10;;;7.00;61.80;;;;;;5054363;28;20025;-76
2021/01/06 06:02:39;;;;;;;8.05;5.47;;;7.00;61.70;;;;;;5054276;28;20025;-76
2021/01/06 06:05:32;;;;;;;9.75;6.60;;;6.90;61.80;;;;;;5054027;28;20040;-76
2021/01/06 06:08:20;;;;;;;9.10;6.05;;;6.90;61.90;;;;;;5054423;28;20029;-76
2021/01/06 06:11:24;;;;;;;9.10;5.40;;;6.90;62.00;;;;;;5054350;28;20070;-76
2021/01/06 06:14:15;;;;;;;7.85;5.65;;;6.90;62.10;;;;;;5054093;28;20374;-76
2021/01/06 06:17:12;;;;;;;9.02;5.55;;;6.80;62.20;;;;;;5052865;28;20029;-77
2021/01/06 06:19:53;;;;;;;9.65;6.05;;;6.80;62.30;;;;;;5054058;28;20036;-76
2021/01/06 06:22:32;;;;;;;7.70;5.22;;;6.80;62.40;;;;;;5053949;28;20489;-77
2021/01/06 06:25:06;;;;;;;9.93;5.40;;;6.80;62.40;;;;;;5053945;28;20043;-77
2021/01/06 06:27:51;;;;;;;7.90;5.40;;;6.80;62.50;;;;;;5053974;28;20032;-77
2021/01/06 06:30:27;;;;;;;6.57;4.45;;;6.80;62.50;;;;;;5053636;28;20025;-77
2021/01/06 06:32:53;;;;;;;5.78;4.25;;;6.80;62.50;;;;;;5053830;28;20032;-77
2021/01/06 06:35:19;;;;;;;5.22;3.95;;;6.80;62.60;;;;;;5053999;28;20412;-77
2021/01/06 06:38:02;;;;;;;5.75;3.85;;;6.70;62.60;;;;;;5052455;28;20148;-77
2021/01/06 06:40:47;;;;;;;6.07;4.30;;;6.70;62.60;;;;;;5054041;28;20021;-77
2021/01/06 06:43:30;;;;;;;6.32;3.90;;;6.80;62.70;;;;;;5053809;28;20036;-77
2021/01/06 06:46:11;;;;;;;5.03;3.40;;;6.80;62.70;;;;;;5053821;28;20029;-76
2021/01/06 06:48:43;;;;;;;4.93;3.67;;;6.80;62.70;;;;;;5053522;28;20017;-77
2021/01/06 06:51:19;;;;;;;5.22;3.70;;;6.80;62.70;;;;;;5052358;28;20032;-77
2021/01/06 06:54:06;;;;;;;4.93;3.65;;;6.80;62.60;;;;;;5053736;28;20013;-77
2021/01/06 06:56:55;;;;;;;6.20;3.40;;;6.80;62.60;;;;;;5052797;28;20033;-77
2021/01/06 06:59:28;;;;;;;6.28;4.10;;;6.80;62.50;;;;;;5053330;28;20021;-77
2021/01/06 07:01:59;;;;;;;5.18;3.70;;;6.80;62.60;;;;;;5064786;28;20032;-77
2021/01/06 07:04:34;;;;;;;5.03;3.65;;;6.70;62.60;;;;;;5073158;28;20104;-77
2021/01/06 07:07:02;;;;;;;4.60;3.55;;;6.70;62.60;;;;;;5073316;28;20021;-77
2021/01/06 07:09:31;;;;;;;5.18;3.92;;;6.70;62.70;;;;;;5073498;28;20024;-78
2021/01/06 07:12:14;;;;;;;3.70;3.25;;;6.70;62.90;;;;;;5073381;28;20024;-77
2021/01/06 07:14:53;;;;;;;5.30;3.95;;;6.70;62.90;;;;;;5072433;28;20430;-77
2021/01/06 07:17:38;;;;;;;5.47;3.83;;;6.70;63.10;;;;;;5073288;28;20478;-77
2021/01/06 07:20:11;;;;;;;4.75;3.47;;;6.70;63.10;;;;;;5073537;28;20510;-77
2021/01/06 07:22:40;;;;;;;5.47;3.90;;;6.60;63.10;;;;;;5071681;28;20220;-77
2021/01/06 07:25:25;;;;;;;5.60;4.15;;;6.70;63.20;;;;;;5073438;28;20384;-77
2021/01/06 07:27:57;;;;;;;5.32;3.78;;;6.60;63.20;;;;;;5073078;28;20035;-77
2021/01/06 07:30:48;;;;;;;4.57;3.50;;;6.60;63.20;;;;;;5072649;28;20028;-76
2021/01/06 07:33:44;;;;;;;4.57;3.45;;;6.60;63.30;;;;;;5053043;28;20096;-77
2021/01/06 07:36:10;;;;;;;5.38;3.00;;;6.60;63.40;;;;;;5053040;28;20359;-77
2021/01/06 07:38:36;;;;;;;4.68;3.30;;;6.60;63.40;;;;;;5052889;28;20028;-77
2021/01/06 07:41:02;;;;;;;3.72;2.90;;;6.60;63.50;;;;;;5052828;28;20025;-77
2021/01/06 07:43:31;;;;;;;4.57;2.85;;;6.60;63.60;;;;;;5052860;28;20028;-77
2021/01/06 07:46:00;;;;;;;4.72;3.15;;;6.60;63.60;;;;;;5051511;28;20108;-77
2021/01/06 07:48:45;;;;;;;4.00;3.08;;;6.60;63.60;;;;;;5052779;28;20025;-77
2021/01/06 07:51:14;;;;;;;4.20;2.85;;;6.60;63.60;;;;;;5052680;28;20029;-77
2021/01/06 07:53:50;;;;;;;3.83;2.70;;;6.60;63.60;;;;;;5051520;28;20493;-77
2021/01/06 07:56:29;;;;;;;3.75;2.63;;;6.70;63.80;;;;;;5052745;28;20025;-77
2021/01/06 07:58:58;;;;;;;5.97;2.80;;;6.70;63.80;;;;;;5051543;28;20112;-77
2021/01/06 08:01:40;;;;;;;4.00;2.53;;;6.80;63.90;;;;;;5069542;28;20033;-77
2021/01/06 08:04:13;;;;;;;11.73;5.20;;;6.80;64.00;;;;;;5071504;28;20125;-76
2021/01/06 08:06:49;;;;;;;11.32;4.93;;;6.90;63.90;;;;;;5074094;28;20031;-76
2021/01/06 08:09:34;;;;;;;10.30;4.85;;;6.90;63.80;;;;;;5076190;28;20021;-76
2021/01/06 08:12:10;;;;;;;14.75;6.07;;;7.00;63.80;;;;;;5076204;28;20025;-76
2021/01/06 08:14:36;;;;;;;8.60;4.68;;;7.00;63.70;;;;;;5076158;28;20047;-77
2021/01/06 08:17:19;;;;;;;6.88;3.80;;;7.10;63.50;;;;;;5076251;28;20044;-78
2021/01/06 08:20:02;;;;;;;8.40;4.15;;;7.10;63.30;;;;;;5076180;28;20021;-79
2021/01/06 08:22:38;;;;;;;5.57;3.00;;;7.20;63.10;;;;;;5074638;28;20528;-78
2021/01/06 08:25:04;;;;;;;3.63;2.92;;;7.20;62.80;;;;;;5076588;28;20093;-77
2021/01/06 08:27:37;;;;;;;4.75;2.67;;;7.20;62.60;;;;;;5076084;28;20025;-78
2021/01/06 08:30:20;;;;;;;4.50;2.72;;;7.20;62.40;;;;;;5074822;28;20063;-78
2021/01/06 08:33:07;;;;;;;3.83;2.60;;;7.20;62.30;;;;;;5075925;28;20024;-78
2021/01/06 08:35:40;;;;;;;4.40;2.45;;;7.20;62.40;;;;;;5074759;28;20025;-78
2021/01/06 08:38:25;;;;;;;3.33;2.35;;;7.30;62.70;;;;;;5076125;28;20021;-78
2021/01/06 08:40:51;;;;;;;3.58;2.33;;;7.30;62.70;;;;;;5069993;28;20035;-78
2021/01/06 08:43:16;;;;;;;3.60;2.55;;;7.40;62.70;;;;;;5054482;28;20041;-78
2021/01/06 08:45:55;;;;;;;5.15;2.88;;;7.40;62.40;;;;;;5055497;28;20474;-78
2021/01/06 08:48:39;;;;;;;3.28;2.30;;;7.40;62.40;;;;;;5055577;28;20025;-77
2021/01/06 08:51:07;;;;;;;;;;;7.40;62.40;;;;;;5068291;28;20366;-78
2021/01/06 08:53:38;;;;;;;4.07;2.67;;;7.50;62.40;;;;;;5075489;28;19912;-78
2021/01/06 08:56:10;;;;;;;4.70;3.55;;;7.50;61.90;;;;;;5067408;28;20371;-77
2021/01/06 08:58:42;;;;;;;5.32;3.30;;;7.50;61.70;;;;;;5055798;28;20024;-77
2021/01/06 09:01:23;;;;;;;4.88;3.63;;;7.50;61.70;;;;;;5058493;28;20032;-78
2021/01/06 09:04:14;;;;;;;9.75;5.03;;;7.40;61.70;;;;;;5054130;28;20620;-78
2021/01/06 09:07:09;;;;;;;5.43;3.97;;;7.40;61.90;;;;;;5055330;28;20028;-77
2021/01/06 09:10:06;;;;;;;5.55;3.63;;;7.40;62.00;;;;;;5055112;28;20036;-78
2021/01/06 09:12:55;;;;;;;5.47;3.20;;;7.40;62.20;;;;;;5066229;28;20021;-77
2021/01/06 09:15:24;;;;;;;6.50;4.20;;;7.40;62.50;;;;;;5055149;28;20453;-78
2021/01/06 09:18:00;;;;;;;8.80;6.03;;;7.40;62.80;;;;;;5058018;28;20071;-78
2021/01/06 09:20:36;;;;;;;10.63;6.53;;;7.40;62.70;;;;;;5053787;28;20036;-78
2021/01/06 09:23:03;;;;;;;10.50;7.05;;;7.40;62.20;;;;;;5058291;28;20045;-78
2021/01/06 09:25:29;;;;;;;11.88;7.20;;;7.40;62.20;;;;;;5055175;28;20021;-78
2021/01/06 09:27:59;;;;;;;14.50;9.15;;;7.40;62.10;;;;;;5055451;28;20028;-79
2021/01/06 09:30:35;;;;;;;16.63;9.15;;;7.40;62.10;;;;;;5055284;28;20370;-78
2021/01/06 09:33:03;;;;;;;15.45;10.55;;;7.40;62.10;;;;;;5054810;28;20048;-78
2021/01/06 09:35:33;;;;;;;20.60;11.90;;;7.40;62.10;;;;;;5054573;28;20017;-78
2021/01/06 09:38:37;;;;;;;28.15;16.10;;;7.40;62.00;;;;;;5061019;28;20350;-78
2021/01/06 09:41:07;;;;;;;24.48;14.20;;;7.20;61.50;;;;;;5054606;28;20090;-77
2021/01/06 09:43:46;;;;;;;25.85;16.00;;;7.20;61.60;;;;;;5068776;28;20016;-77
2021/01/06 09:46:49;;;;;;;31.33;17.13;;;7.10;61.50;;;;;;5063728;28;20485;-76
2021/01/06 09:49:20;;;;;;;24.70;14.93;;;7.00;61.70;;;;;;5074216;28;20051;-76
2021/01/06 09:51:53;;;;;;;31.33;16.67;;;6.90;61.70;;;;;;5074370;28;20067;-75
2021/01/06 09:54:20;;;;;;;29.90;17.75;;;6.80;61.90;;;;;;5074852;28;20104;-75
2021/01/06 09:56:46;;;;;;;29.75;16.42;;;6.80;62.40;;;;;;5074282;28;20094;-75
2021/01/06 09:59:36;;;;;;;28.90;16.83;;;6.70;62.50;;;;;;5074028;28;20056;-74
2021/01/06 10:02:25;;;;;;;32.20;18.02;;;6.70;62.80;;;;;;5068204;28;20033;-73
2021/01/06 10:04:57;;;;;;;28.63;17.35;;;6.60;62.80;;;;;;5061249;28;20197;-72
2021/01/06 10:07:25;;;;;;;29.83;16.50;;;6.60;63.00;;;;;;5074212;28;20013;-71
2021/01/06 10:09:58;;;;;;;28.42;16.10;;;6.50;63.10;;;;;;5072890;28;20029;-71
2021/01/06 10:12:45;;;;;;;30.70;17.45;;;6.50;63.30;;;;;;5073428;28;20017;-71
2021/01/06 10:15:40;;;;;;;33.60;19.08;;;6.50;63.30;;;;;;5073925;28;20108;-71
2021/01/06 10:18:11;;;;;;;;;;;6.40;63.20;;;;;;5063243;28;20056;-70
2021/01/06 10:21:00;;;;;;;33.65;18.65;;;6.40;63.20;;;;;;5073178;28;19973;-70
2021/01/06 10:24:01;;;;;;;31.23;18.38;;;6.40;63.20;;;;;;5065500;28;20102;-69
2021/01/06 10:26:44;;;;;;;34.35;19.60;;;6.30;63.40;;;;;;5065042;28;20029;-68
2021/01/06 10:29:15;;;;;;;30.80;18.27;;;6.30;63.60;;;;;;5058969;28;20029;-68
2021/01/06 10:32:10;;;;;;;37.40;21.55;;;6.20;64.00;;;;;;5065358;28;20024;-68
2021/01/06 10:34:42;;;;;;;34.30;19.67;;;6.10;64.10;;;;;;5070832;28;20137;-67
2021/01/06 10:37:30;;;;;;;31.15;17.42;;;6.10;64.40;;;;;;5053571;28;20036;-67
2021/01/06 10:40:25;;;;;;;40.72;21.55;;;6.10;65.50;;;;;;5052285;28;20017;-68
2021/01/06 10:42:51;;;;;;;;;;;6.10;64.60;;;;;;5053855;28;20390;-68
2021/01/06 10:45:29;;;;;;;33.67;18.80;;;6.20;64.50;;;;;;5053706;28;19923;-68
2021/01/06 10:47:55;;;;;;;45.15;22.58;;;6.10;65.00;;;;;;5057085;28;20379;-67
2021/01/06 10:50:26;;;;;;;40.45;21.95;;;6.10;65.20;;;;;;5055180;28;20025;-68
2021/01/06 10:52:58;;;;;;;39.15;22.27;;;6.10;65.10;;;;;;5054849;28;20067;-68
2021/01/06 10:55:47;;;;;;;40.55;21.88;;;6.00;65.20;;;;;;5063604;28;20385;-69
2021/01/06 10:58:26;;;;;;;36.58;20.88;;;6.00;65.40;;;;;;5054205;28;20021;-69
2021/01/06 11:01:17;;;;;;;39.50;20.92;;;6.00;65.50;;;;;;5058380;28;20037;-68
2021/01/06 11:04:01;;;;;;;40.75;22.23;;;6.00;65.40;;;;;;5054661;28;20494;-69
2021/01/06 11:06:50;;;;;;;43.00;23.23;;;6.00;65.40;;;;;;5059382;28;20033;-69
2021/01/06 11:09:45;;;;;;;38.70;22.05;;;6.00;65.30;;;;;;5073564;28;20029;-69
2021/01/06 11:12:17;;;;;;;39.17;21.35;;;6.00;65.30;;;;;;5057208;28;20385;-70
2021/01/06 11:15:03;;;;;;;40.65;22.30;;;6.00;65.30;;;;;;5071210;28;20027;-70
2021/01/06 11:17:35;;;;;;;40.05;20.63;;;6.00;65.50;;;;;;5074448;28;20032;-70
2021/01/06 11:20:26;;;;;;;38.85;21.08;;;6.00;65.50;;;;;;5089440;28;20111;-69
2021/01/06 11:23:29;;;;;;;38.30;21.38;;;6.00;65.60;;;;;;5070751;28;20128;-70
2021/01/06 11:25:58;;;;;;;35.75;20.20;;;6.00;65.70;;;;;;5071643;28;20039;-70
2021/01/06 11:28:40;;;;;;;40.17;22.25;;;6.10;65.80;;;;;;5074216;28;20519;-71
2021/01/06 11:31:18;;;;;;;36.65;20.30;;;6.00;65.70;;;;;;5078202;28;20397;-70
2021/01/06 11:33:45;;;;;;;39.40;20.88;;;6.10;66.00;;;;;;5056930;28;20100;-70
2021/01/06 11:36:43;;;;;;;33.50;18.88;;;6.10;66.00;;;;;;5061745;28;20396;-70
2021/01/06 11:39:13;;;;;;;36.35;19.65;;;6.10;66.40;;;;;;5067780;28;20024;-71
2021/01/06 11:41:48;;;;;;;37.75;20.92;;;6.20;66.30;;;;;;5065969;28;20477;-70
2021/01/06 11:44:37;;;;;;;41.47;20.40;;;6.20;66.30;;;;;;5061954;28;20036;-71
2021/01/06 11:47:20;;;;;;;37.97;20.00;;;6.30;66.50;;;;;;5087100;28;20032;-69
2021/01/06 11:49:54;;;;;;;49.05;24.08;;;6.30;66.50;;;;;;5079631;28;20069;-70
2021/01/06 11:52:43;;;;;;;40.50;22.85;;;6.40;65.90;;;;;;5091514;28;20021;-70
2021/01/06 11:55:39;;;;;;;34.05;19.15;;;6.40;65.70;;;;;;5084333;28;20173;-71
2021/01/06 11:58:17;;;;;;;40.92;22.48;;;6.50;66.10;;;;;;5062197;28;20020;-69
2021/01/06 12:00:43;;;;;;;42.63;21.88;;;6.50;66.10;;;;;;5085357;28;20024;-69
2021/01/06 12:03:12;;;;;;;40.35;22.17;;;6.50;66.00;;;;;;5067392;28;20029;-70
2021/01/06 12:06:05;;;;;;;41.95;23.67;;;6.50;66.20;;;;;;5063266;28;20032;-70
2021/01/06 12:09:05;;;;;;;45.30;24.02;;;6.60;66.20;;;;;;5081957;28;20120;-69
2021/01/06 12:11:50;;;;;;;39.88;21.10;;;6.70;66.30;;;;;;5060519;28;20040;-69
2021/01/06 12:14:23;;;;;;;33.75;19.80;;;6.70;66.30;;;;;;5075196;28;20030;-70
2021/01/06 12:17:10;;;;;;;39.35;20.73;;;6.80;66.00;;;;;;5078984;28;20024;-69
2021/01/06 12:20:05;;;;;;;40.50;19.80;;;6.80;66.70;;;;;;5070554;28;20388;-70
2021/01/06 12:22:32;;;;;;;37.42;19.55;;;6.80;65.70;;;;;;5069548;28;20047;-69
2021/01/06 12:25:30;;;;;;;39.70;21.65;;;6.90;66.10;;;;;;5078290;28;20098;-69
2021/01/06 12:28:22;;;;;;;35.97;19.15;;;6.90;65.70;;;;;;5091260;28;20630;-70
2021/01/06 12:31:11;;;;;;;42.42;21.20;;;7.00;66.00;;;;;;5085381;28;20427;-70
2021/01/06 12:33:49;;;;;;;36.88;20.50;;;7.10;65.90;;;;;;5078864;28;20549;-69
2021/01/06 12:36:26;;;;;;;38.63;21.35;;;7.10;65.70;;;;;;5078367;28;20027;-70
2021/01/06 12:38:53;;;;;;;37.00;21.42;;;7.20;65.70;;;;;;5085072;28;20047;-69
2021/01/06 12:41:24;;;;;;;36.35;21.00;;;7.20;65.60;;;;;;5068974;28;20064;-70
2021/01/06 12:44:17;;;;;;;41.63;21.60;;;7.20;64.70;;;;;;5075676;28;20024;-70
2021/01/06 12:47:15;;;;;;;39.70;21.25;;;7.20;64.10;;;;;;5075121;28;20079;-68
2021/01/06 12:50:18;;;;;;;37.05;19.15;;;7.20;64.30;;;;;;5073159;28;20487;-69
2021/01/06 12:52:59;;;;;;;35.65;19.77;;;7.20;64.40;;;;;;5083398;28;20020;-70
2021/01/06 12:55:43;;;;;;;35.08;19.65;;;7.20;64.70;;;;;;5078041;28;20024;-69
2021/01/06 12:58:28;;;;;;;36.97;20.63;;;7.30;65.00;;;;;;5055817;28;20120;-69
2021/01/06 13:01:02;;;;;;;40.92;20.50;;;7.30;64.90;;;;;;5075446;28;20051;-70
2021/01/06 13:03:43;;;;;;;33.65;19.40;;;7.30;64.70;;;;;;5077772;28;20020;-70
2021/01/06 13:06:30;;;;;;;36.38;19.67;;;7.40;65.20;;;;;;5063935;28;20101;-70
2021/01/06 13:09:05;;;;;;;32.85;18.17;;;7.40;64.80;;;;;;5082932;28;20031;-70
2021/01/06 13:12:09;;;;;;;36.75;20.45;;;7.40;64.80;;;;;;5077315;28;20024;-69
2021/01/06 13:14:35;;;;;;;31.35;16.90;;;7.40;64.40;;;;;;5071269;28;20087;-70
2021/01/06 13:17:22;;;;;;;43.83;20.58;;;7.50;64.70;;;;;;5082938;28;20060;-70
2021/01/06 13:20:05;;;;;;;37.45;18.40;;;7.50;64.90;;;;;;5091306;28;20476;-70
2021/01/06 13:22:42;;;;;;;34.45;19.20;;;7.50;64.80;;;;;;5082015;28;20031;-69
2021/01/06 13:25:23;;;;;;;38.42;20.30;;;7.50;64.00;;;;;;5081864;28;20098;-70
2021/01/06 13:27:52;;;;;;;37.90;20.45;;;7.40;63.30;;;;;;5091060;28;20376;-70
2021/01/06 13:30:29;;;;;;;38.17;20.30;;;7.40;63.30;;;;;;5080019;28;20385;-69